sensor_id;sensor_type;location;lat;lon;timestamp;P1;durP1;ratioP1;P2;durP2;ratioP2
57309;SDS011;43153;50.984;18.204;2023-02-04T00:00:11;26.90;;;5.20;;
57309;SDS011;43153;50.984;18.204;2023-02-04T00:02:46;12.50;;;2.40;;
57309;SDS011;43153;50.984;18.204;2023-02-04T00:05:12;11.40;;;2.30;;
57309;SDS011;43153;50.984;18.204;2023-02-04T00:07:39;7.80;;;1.90;;
57309;SDS011;43153;50.984;18.204;2023-02-04T00:10:06;9.00;;;2.30;;
57309;SDS011;43153;50.984;18.204;2023-02-04T00:12:34;11.50;;;2.10;;
57309;SDS011;43153;50.984;18.204;2023-02-04T00:15:01;8.40;;;2.10;;
57309;SDS011;43153;50.984;18.204;2023-02-04T00:17:27;12.10;;;2.70;;
57309;SDS011;43153;50.984;18.204;2023-02-04T00:19:54;14.70;;;4.50;;
57309;SDS011;43153;50.984;18.204;2023-02-04T00:22:24;14.50;;;4.40;;
57309;SDS011;43153;50.984;18.204;2023-02-04T00:24:52;16.00;;;4.90;;
57309;SDS011;43153;50.984;18.204;2023-02-04T00:27:18;11.80;;;4.80;;
57309;SDS011;43153;50.984;18.204;2023-02-04T00:29:44;13.20;;;5.30;;
57309;SDS011;43153;50.984;18.204;2023-02-04T00:32:12;14.20;;;5.60;;
57309;SDS011;43153;50.984;18.204;2023-02-04T00:34:39;15.20;;;5.50;;
57309;SDS011;43153;50.984;18.204;2023-02-04T00:37:07;13.50;;;4.80;;
57309;SDS011;43153;50.984;18.204;2023-02-04T00:39:33;15.40;;;5.80;;
57309;SDS011;43153;50.984;18.204;2023-02-04T00:41:59;14.00;;;4.70;;
57309;SDS011;43153;50.984;18.204;2023-02-04T00:44:26;10.50;;;4.10;;
57309;SDS011;43153;50.984;18.204;2023-02-04T00:46:52;12.80;;;5.40;;
57309;SDS011;43153;50.984;18.204;2023-02-04T00:49:19;16.70;;;4.70;;
57309;SDS011;43153;50.984;18.204;2023-02-04T00:51:45;12.80;;;4.10;;
57309;SDS011;43153;50.984;18.204;2023-02-04T00:54:12;13.70;;;4.50;;
57309;SDS011;43153;50.984;18.204;2023-02-04T00:56:40;13.40;;;4.60;;
57309;SDS011;43153;50.984;18.204;2023-02-04T00:59:07;12.80;;;4.10;;
57309;SDS011;43153;50.984;18.204;2023-02-04T01:01:41;9.10;;;3.50;;
57309;SDS011;43153;50.984;18.204;2023-02-04T01:04:09;5.10;;;2.10;;
57309;SDS011;43153;50.984;18.204;2023-02-04T01:06:36;7.10;;;2.30;;
57309;SDS011;43153;50.984;18.204;2023-02-04T01:09:05;5.70;;;1.90;;
57309;SDS011;43153;50.984;18.204;2023-02-04T01:11:32;7.40;;;2.40;;
57309;SDS011;43153;50.984;18.204;2023-02-04T01:14:02;7.00;;;2.40;;
57309;SDS011;43153;50.984;18.204;2023-02-04T01:16:29;8.40;;;2.90;;
57309;SDS011;43153;50.984;18.204;2023-02-04T01:18:57;12.40;;;3.60;;
57309;SDS011;43153;50.984;18.204;2023-02-04T01:21:26;11.10;;;4.40;;
57309;SDS011;43153;50.984;18.204;2023-02-04T01:23:52;9.30;;;3.50;;
57309;SDS011;43153;50.984;18.204;2023-02-04T01:26:19;9.10;;;2.60;;
57309;SDS011;43153;50.984;18.204;2023-02-04T01:28:45;6.10;;;2.20;;
57309;SDS011;43153;50.984;18.204;2023-02-04T01:31:11;6.70;;;2.30;;
57309;SDS011;43153;50.984;18.204;2023-02-04T01:33:37;8.70;;;2.50;;
57309;SDS011;43153;50.984;18.204;2023-02-04T01:36:05;6.00;;;2.40;;
57309;SDS011;43153;50.984;18.204;2023-02-04T01:38:31;7.60;;;2.90;;
57309;SDS011;43153;50.984;18.204;2023-02-04T01:40:59;7.60;;;3.00;;
57309;SDS011;43153;50.984;18.204;2023-02-04T01:43:26;6.60;;;2.70;;
57309;SDS011;43153;50.984;18.204;2023-02-04T01:45:52;10.40;;;3.00;;
57309;SDS011;43153;50.984;18.204;2023-02-04T01:48:19;8.30;;;3.20;;
57309;SDS011;43153;50.984;18.204;2023-02-04T01:50:50;6.50;;;2.40;;
57309;SDS011;43153;50.984;18.204;2023-02-04T01:53:22;6.80;;;2.50;;
57309;SDS011;43153;50.984;18.204;2023-02-04T01:55:56;6.90;;;2.40;;
57309;SDS011;43153;50.984;18.204;2023-02-04T01:58:24;8.50;;;3.10;;
57309;SDS011;43153;50.984;18.204;2023-02-04T02:00:52;9.50;;;2.80;;
57309;SDS011;43153;50.984;18.204;2023-02-04T02:03:19;9.20;;;3.50;;
57309;SDS011;43153;50.984;18.204;2023-02-04T02:05:49;12.00;;;3.00;;
57309;SDS011;43153;50.984;18.204;2023-02-04T02:08:17;7.30;;;2.70;;
57309;SDS011;43153;50.984;18.204;2023-02-04T02:10:46;7.20;;;2.70;;
57309;SDS011;43153;50.984;18.204;2023-02-04T02:13:19;6.00;;;2.10;;
57309;SDS011;43153;50.984;18.204;2023-02-04T02:15:46;6.00;;;1.90;;
57309;SDS011;43153;50.984;18.204;2023-02-04T02:18:12;9.80;;;4.50;;
57309;SDS011;43153;50.984;18.204;2023-02-04T02:20:39;13.70;;;7.10;;
57309;SDS011;43153;50.984;18.204;2023-02-04T02:25:47;19.00;;;9.30;;
57309;SDS011;43153;50.984;18.204;2023-02-04T02:28:20;22.20;;;11.00;;
57309;SDS011;43153;50.984;18.204;2023-02-04T02:30:47;22.00;;;9.00;;
57309;SDS011;43153;50.984;18.204;2023-02-04T02:33:15;19.80;;;9.90;;
57309;SDS011;43153;50.984;18.204;2023-02-04T02:35:47;20.60;;;10.50;;
57309;SDS011;43153;50.984;18.204;2023-02-04T02:38:17;18.90;;;8.10;;
57309;SDS011;43153;50.984;18.204;2023-02-04T02:40:44;17.90;;;8.20;;
57309;SDS011;43153;50.984;18.204;2023-02-04T02:43:16;20.10;;;9.40;;
57309;SDS011;43153;50.984;18.204;2023-02-04T02:45:44;15.40;;;7.80;;
57309;SDS011;43153;50.984;18.204;2023-02-04T02:48:11;20.70;;;9.70;;
57309;SDS011;43153;50.984;18.204;2023-02-04T02:50:39;18.40;;;7.20;;
57309;SDS011;43153;50.984;18.204;2023-02-04T02:53:13;17.30;;;7.10;;
57309;SDS011;43153;50.984;18.204;2023-02-04T02:55:44;17.30;;;8.40;;
57309;SDS011;43153;50.984;18.204;2023-02-04T02:58:19;15.20;;;7.00;;
57309;SDS011;43153;50.984;18.204;2023-02-04T03:00:54;14.20;;;5.90;;
57309;SDS011;43153;50.984;18.204;2023-02-04T03:03:24;11.60;;;4.50;;
57309;SDS011;43153;50.984;18.204;2023-02-04T03:06:00;11.70;;;4.90;;
57309;SDS011;43153;50.984;18.204;2023-02-04T03:08:29;11.70;;;4.30;;
57309;SDS011;43153;50.984;18.204;2023-02-04T03:10:57;12.20;;;4.50;;
57309;SDS011;43153;50.984;18.204;2023-02-04T03:13:23;11.30;;;4.60;;
57309;SDS011;43153;50.984;18.204;2023-02-04T03:15:49;9.10;;;4.00;;
57309;SDS011;43153;50.984;18.204;2023-02-04T03:18:18;9.60;;;4.20;;
57309;SDS011;43153;50.984;18.204;2023-02-04T03:20:50;13.70;;;5.50;;
57309;SDS011;43153;50.984;18.204;2023-02-04T03:23:17;12.70;;;5.30;;
57309;SDS011;43153;50.984;18.204;2023-02-04T03:25:48;12.30;;;5.80;;
57309;SDS011;43153;50.984;18.204;2023-02-04T03:28:15;8.20;;;4.20;;
57309;SDS011;43153;50.984;18.204;2023-02-04T03:30:42;10.60;;;5.00;;
57309;SDS011;43153;50.984;18.204;2023-02-04T03:33:09;15.70;;;7.10;;
57309;SDS011;43153;50.984;18.204;2023-02-04T03:35:35;12.80;;;5.80;;
57309;SDS011;43153;50.984;18.204;2023-02-04T03:38:02;12.50;;;4.10;;
57309;SDS011;43153;50.984;18.204;2023-02-04T03:40:28;12.20;;;4.50;;
57309;SDS011;43153;50.984;18.204;2023-02-04T03:42:54;11.90;;;4.70;;
57309;SDS011;43153;50.984;18.204;2023-02-04T03:45:22;9.60;;;3.90;;
57309;SDS011;43153;50.984;18.204;2023-02-04T03:47:48;9.30;;;4.10;;
57309;SDS011;43153;50.984;18.204;2023-02-04T03:50:14;9.50;;;3.70;;
57309;SDS011;43153;50.984;18.204;2023-02-04T03:52:40;10.90;;;3.40;;
57309;SDS011;43153;50.984;18.204;2023-02-04T03:55:07;12.40;;;4.50;;
57309;SDS011;43153;50.984;18.204;2023-02-04T03:57:34;8.40;;;3.70;;
57309;SDS011;43153;50.984;18.204;2023-02-04T04:00:01;8.10;;;3.30;;
57309;SDS011;43153;50.984;18.204;2023-02-04T04:02:27;10.40;;;3.90;;
57309;SDS011;43153;50.984;18.204;2023-02-04T04:04:54;10.70;;;4.30;;
57309;SDS011;43153;50.984;18.204;2023-02-04T04:07:21;8.70;;;3.50;;
57309;SDS011;43153;50.984;18.204;2023-02-04T04:09:47;7.60;;;3.10;;
57309;SDS011;43153;50.984;18.204;2023-02-04T04:12:13;10.10;;;4.30;;
57309;SDS011;43153;50.984;18.204;2023-02-04T04:14:41;11.80;;;4.70;;
57309;SDS011;43153;50.984;18.204;2023-02-04T04:17:08;9.60;;;3.70;;
57309;SDS011;43153;50.984;18.204;2023-02-04T04:19:34;11.70;;;4.80;;
57309;SDS011;43153;50.984;18.204;2023-02-04T04:22:00;11.00;;;5.30;;
57309;SDS011;43153;50.984;18.204;2023-02-04T04:24:26;8.70;;;4.10;;
57309;SDS011;43153;50.984;18.204;2023-02-04T04:26:52;10.00;;;4.20;;
57309;SDS011;43153;50.984;18.204;2023-02-04T04:29:19;14.80;;;6.50;;
57309;SDS011;43153;50.984;18.204;2023-02-04T04:31:45;10.80;;;4.30;;
57309;SDS011;43153;50.984;18.204;2023-02-04T04:34:11;12.30;;;4.70;;
57309;SDS011;43153;50.984;18.204;2023-02-04T04:36:37;11.50;;;4.60;;
57309;SDS011;43153;50.984;18.204;2023-02-04T04:39:05;14.40;;;5.00;;
57309;SDS011;43153;50.984;18.204;2023-02-04T04:41:31;13.30;;;5.00;;
57309;SDS011;43153;50.984;18.204;2023-02-04T04:43:57;12.40;;;5.20;;
57309;SDS011;43153;50.984;18.204;2023-02-04T04:46:23;14.20;;;5.70;;
57309;SDS011;43153;50.984;18.204;2023-02-04T04:48:50;9.90;;;3.40;;
57309;SDS011;43153;50.984;18.204;2023-02-04T04:51:16;11.30;;;4.60;;
57309;SDS011;43153;50.984;18.204;2023-02-04T04:53:42;13.00;;;5.00;;
57309;SDS011;43153;50.984;18.204;2023-02-04T04:56:10;13.60;;;5.30;;
57309;SDS011;43153;50.984;18.204;2023-02-04T04:58:37;11.00;;;4.80;;
57309;SDS011;43153;50.984;18.204;2023-02-04T05:01:03;9.70;;;4.20;;
57309;SDS011;43153;50.984;18.204;2023-02-04T05:03:30;10.70;;;4.70;;
57309;SDS011;43153;50.984;18.204;2023-02-04T05:05:56;11.30;;;3.80;;
57309;SDS011;43153;50.984;18.204;2023-02-04T05:08:22;11.80;;;4.60;;
57309;SDS011;43153;50.984;18.204;2023-02-04T05:10:48;13.40;;;4.80;;
57309;SDS011;43153;50.984;18.204;2023-02-04T05:13:15;9.90;;;3.70;;
57309;SDS011;43153;50.984;18.204;2023-02-04T05:15:41;9.40;;;3.50;;
57309;SDS011;43153;50.984;18.204;2023-02-04T05:18:08;9.50;;;4.20;;
57309;SDS011;43153;50.984;18.204;2023-02-04T05:20:36;11.10;;;4.20;;
57309;SDS011;43153;50.984;18.204;2023-02-04T05:23:02;14.10;;;5.60;;
57309;SDS011;43153;50.984;18.204;2023-02-04T05:25:28;12.60;;;5.40;;
57309;SDS011;43153;50.984;18.204;2023-02-04T05:27:57;15.20;;;5.80;;
57309;SDS011;43153;50.984;18.204;2023-02-04T05:30:24;13.70;;;6.20;;
57309;SDS011;43153;50.984;18.204;2023-02-04T05:32:50;12.70;;;5.50;;
57309;SDS011;43153;50.984;18.204;2023-02-04T05:35:16;17.10;;;6.50;;
57309;SDS011;43153;50.984;18.204;2023-02-04T05:37:44;16.80;;;6.60;;
57309;SDS011;43153;50.984;18.204;2023-02-04T05:40:12;14.10;;;5.70;;
57309;SDS011;43153;50.984;18.204;2023-02-04T05:42:42;14.70;;;5.90;;
57309;SDS011;43153;50.984;18.204;2023-02-04T05:45:15;13.40;;;6.00;;
57309;SDS011;43153;50.984;18.204;2023-02-04T05:47:42;14.10;;;6.30;;
57309;SDS011;43153;50.984;18.204;2023-02-04T05:50:09;15.30;;;6.50;;
57309;SDS011;43153;50.984;18.204;2023-02-04T05:52:36;18.00;;;6.60;;
57309;SDS011;43153;50.984;18.204;2023-02-04T05:55:03;15.90;;;7.00;;
57309;SDS011;43153;50.984;18.204;2023-02-04T05:57:30;17.60;;;8.00;;
57309;SDS011;43153;50.984;18.204;2023-02-04T05:59:58;15.00;;;5.90;;
57309;SDS011;43153;50.984;18.204;2023-02-04T06:02:27;12.20;;;5.80;;
57309;SDS011;43153;50.984;18.204;2023-02-04T06:04:53;15.00;;;6.50;;
57309;SDS011;43153;50.984;18.204;2023-02-04T06:07:19;15.70;;;6.90;;
57309;SDS011;43153;50.984;18.204;2023-02-04T06:09:46;11.30;;;6.20;;
57309;SDS011;43153;50.984;18.204;2023-02-04T06:12:14;10.40;;;4.90;;
57309;SDS011;43153;50.984;18.204;2023-02-04T06:14:40;10.90;;;4.70;;
57309;SDS011;43153;50.984;18.204;2023-02-04T06:17:07;10.10;;;5.40;;
57309;SDS011;43153;50.984;18.204;2023-02-04T06:19:34;15.20;;;5.20;;
57309;SDS011;43153;50.984;18.204;2023-02-04T06:22:00;12.70;;;6.00;;
57309;SDS011;43153;50.984;18.204;2023-02-04T06:24:29;14.30;;;5.00;;
57309;SDS011;43153;50.984;18.204;2023-02-04T06:26:55;14.70;;;6.20;;
57309;SDS011;43153;50.984;18.204;2023-02-04T06:29:21;13.20;;;5.40;;
57309;SDS011;43153;50.984;18.204;2023-02-04T06:31:49;12.40;;;5.40;;
57309;SDS011;43153;50.984;18.204;2023-02-04T06:34:19;11.60;;;5.40;;
57309;SDS011;43153;50.984;18.204;2023-02-04T06:36:46;13.00;;;5.40;;
57309;SDS011;43153;50.984;18.204;2023-02-04T06:39:14;13.70;;;6.20;;
57309;SDS011;43153;50.984;18.204;2023-02-04T06:41:40;15.00;;;7.40;;
57309;SDS011;43153;50.984;18.204;2023-02-04T06:44:07;14.90;;;6.60;;
57309;SDS011;43153;50.984;18.204;2023-02-04T06:46:33;16.40;;;7.60;;
57309;SDS011;43153;50.984;18.204;2023-02-04T06:49:01;19.80;;;8.50;;
57309;SDS011;43153;50.984;18.204;2023-02-04T06:51:27;17.10;;;7.50;;
57309;SDS011;43153;50.984;18.204;2023-02-04T06:53:53;13.50;;;5.50;;
57309;SDS011;43153;50.984;18.204;2023-02-04T06:56:19;16.00;;;7.10;;
57309;SDS011;43153;50.984;18.204;2023-02-04T06:58:46;16.60;;;6.90;;
57309;SDS011;43153;50.984;18.204;2023-02-04T07:01:12;18.90;;;7.50;;
57309;SDS011;43153;50.984;18.204;2023-02-04T07:03:38;15.30;;;7.20;;
57309;SDS011;43153;50.984;18.204;2023-02-04T07:06:04;20.30;;;7.90;;
57309;SDS011;43153;50.984;18.204;2023-02-04T07:08:32;19.40;;;7.30;;
57309;SDS011;43153;50.984;18.204;2023-02-04T07:10:59;17.10;;;6.80;;
57309;SDS011;43153;50.984;18.204;2023-02-04T07:13:26;16.40;;;7.00;;
57309;SDS011;43153;50.984;18.204;2023-02-04T07:15:52;18.10;;;8.10;;
57309;SDS011;43153;50.984;18.204;2023-02-04T07:18:19;17.60;;;6.40;;
57309;SDS011;43153;50.984;18.204;2023-02-04T07:20:45;19.20;;;8.00;;
57309;SDS011;43153;50.984;18.204;2023-02-04T07:23:11;21.70;;;9.10;;
57309;SDS011;43153;50.984;18.204;2023-02-04T07:25:38;14.60;;;5.70;;
57309;SDS011;43153;50.984;18.204;2023-02-04T07:28:04;17.10;;;7.50;;
57309;SDS011;43153;50.984;18.204;2023-02-04T07:30:31;16.90;;;6.90;;
57309;SDS011;43153;50.984;18.204;2023-02-04T07:32:57;15.70;;;5.90;;
57309;SDS011;43153;50.984;18.204;2023-02-04T07:35:25;14.60;;;6.20;;
57309;SDS011;43153;50.984;18.204;2023-02-04T07:37:52;17.10;;;6.00;;
57309;SDS011;43153;50.984;18.204;2023-02-04T07:40:20;16.10;;;6.60;;
57309;SDS011;43153;50.984;18.204;2023-02-04T07:42:47;15.40;;;5.10;;
57309;SDS011;43153;50.984;18.204;2023-02-04T07:45:15;19.20;;;7.60;;
57309;SDS011;43153;50.984;18.204;2023-02-04T07:47:41;12.70;;;5.60;;
57309;SDS011;43153;50.984;18.204;2023-02-04T07:50:07;16.00;;;4.80;;
57309;SDS011;43153;50.984;18.204;2023-02-04T07:52:35;13.00;;;5.30;;
57309;SDS011;43153;50.984;18.204;2023-02-04T07:55:01;15.30;;;6.00;;
57309;SDS011;43153;50.984;18.204;2023-02-04T07:57:28;16.60;;;5.40;;
57309;SDS011;43153;50.984;18.204;2023-02-04T07:59:55;12.50;;;4.80;;
57309;SDS011;43153;50.984;18.204;2023-02-04T08:02:22;25.10;;;5.40;;
57309;SDS011;43153;50.984;18.204;2023-02-04T08:04:48;11.60;;;4.90;;
57309;SDS011;43153;50.984;18.204;2023-02-04T08:07:14;11.60;;;4.60;;
57309;SDS011;43153;50.984;18.204;2023-02-04T08:09:41;12.60;;;4.50;;
57309;SDS011;43153;50.984;18.204;2023-02-04T08:12:08;12.60;;;4.80;;
57309;SDS011;43153;50.984;18.204;2023-02-04T08:14:38;12.60;;;4.80;;
57309;SDS011;43153;50.984;18.204;2023-02-04T08:17:09;11.30;;;4.60;;
57309;SDS011;43153;50.984;18.204;2023-02-04T08:19:35;11.60;;;3.80;;
57309;SDS011;43153;50.984;18.204;2023-02-04T08:22:02;11.60;;;4.20;;
57309;SDS011;43153;50.984;18.204;2023-02-04T08:24:28;11.40;;;4.30;;
57309;SDS011;43153;50.984;18.204;2023-02-04T08:26:54;12.70;;;4.40;;
57309;SDS011;43153;50.984;18.204;2023-02-04T08:29:23;10.70;;;3.70;;
57309;SDS011;43153;50.984;18.204;2023-02-04T08:31:53;9.70;;;4.40;;
57309;SDS011;43153;50.984;18.204;2023-02-04T08:34:19;10.90;;;4.50;;
57309;SDS011;43153;50.984;18.204;2023-02-04T08:36:46;12.20;;;5.00;;
57309;SDS011;43153;50.984;18.204;2023-02-04T08:39:13;11.50;;;4.00;;
57309;SDS011;43153;50.984;18.204;2023-02-04T08:41:39;11.90;;;5.50;;
57309;SDS011;43153;50.984;18.204;2023-02-04T08:44:05;13.30;;;4.20;;
57309;SDS011;43153;50.984;18.204;2023-02-04T08:46:31;10.70;;;4.50;;
57309;SDS011;43153;50.984;18.204;2023-02-04T08:48:58;12.10;;;4.00;;
57309;SDS011;43153;50.984;18.204;2023-02-04T08:51:27;8.80;;;3.40;;
57309;SDS011;43153;50.984;18.204;2023-02-04T08:53:54;9.40;;;3.30;;
57309;SDS011;43153;50.984;18.204;2023-02-04T08:56:29;8.80;;;2.90;;
57309;SDS011;43153;50.984;18.204;2023-02-04T08:58:59;8.80;;;2.80;;
57309;SDS011;43153;50.984;18.204;2023-02-04T09:01:27;9.80;;;2.70;;
57309;SDS011;43153;50.984;18.204;2023-02-04T09:03:56;9.00;;;2.90;;
57309;SDS011;43153;50.984;18.204;2023-02-04T09:06:25;6.90;;;2.00;;
57309;SDS011;43153;50.984;18.204;2023-02-04T09:08:52;10.20;;;3.30;;
57309;SDS011;43153;50.984;18.204;2023-02-04T09:11:19;6.60;;;2.30;;
57309;SDS011;43153;50.984;18.204;2023-02-04T09:13:45;7.60;;;2.50;;
57309;SDS011;43153;50.984;18.204;2023-02-04T09:16:13;7.80;;;2.60;;
57309;SDS011;43153;50.984;18.204;2023-02-04T09:18:43;7.70;;;2.50;;
57309;SDS011;43153;50.984;18.204;2023-02-04T09:21:09;11.90;;;2.60;;
57309;SDS011;43153;50.984;18.204;2023-02-04T09:23:36;7.10;;;2.00;;
57309;SDS011;43153;50.984;18.204;2023-02-04T09:26:02;7.40;;;2.60;;
57309;SDS011;43153;50.984;18.204;2023-02-04T09:28:29;8.40;;;2.40;;
57309;SDS011;43153;50.984;18.204;2023-02-04T09:30:55;9.10;;;2.20;;
57309;SDS011;43153;50.984;18.204;2023-02-04T09:33:21;7.90;;;1.80;;
57309;SDS011;43153;50.984;18.204;2023-02-04T09:35:48;6.90;;;2.10;;
57309;SDS011;43153;50.984;18.204;2023-02-04T09:38:15;9.60;;;2.10;;
57309;SDS011;43153;50.984;18.204;2023-02-04T09:40:48;6.70;;;1.90;;
57309;SDS011;43153;50.984;18.204;2023-02-04T09:43:20;9.40;;;2.10;;
57309;SDS011;43153;50.984;18.204;2023-02-04T09:45:52;6.30;;;1.90;;
57309;SDS011;43153;50.984;18.204;2023-02-04T09:48:18;8.80;;;2.00;;
57309;SDS011;43153;50.984;18.204;2023-02-04T09:50:47;7.30;;;2.00;;
57309;SDS011;43153;50.984;18.204;2023-02-04T09:53:16;7.20;;;2.20;;
57309;SDS011;43153;50.984;18.204;2023-02-04T09:55:46;5.20;;;1.40;;
57309;SDS011;43153;50.984;18.204;2023-02-04T09:58:19;8.90;;;2.50;;
57309;SDS011;43153;50.984;18.204;2023-02-04T10:00:47;8.60;;;2.20;;
57309;SDS011;43153;50.984;18.204;2023-02-04T10:03:19;8.40;;;2.10;;
57309;SDS011;43153;50.984;18.204;2023-02-04T10:05:49;7.60;;;2.70;;
57309;SDS011;43153;50.984;18.204;2023-02-04T10:08:17;6.20;;;1.80;;
57309;SDS011;43153;50.984;18.204;2023-02-04T10:10:46;7.60;;;1.90;;
57309;SDS011;43153;50.984;18.204;2023-02-04T10:13:14;6.80;;;2.00;;
57309;SDS011;43153;50.984;18.204;2023-02-04T10:15:46;7.40;;;1.70;;
57309;SDS011;43153;50.984;18.204;2023-02-04T10:18:23;5.70;;;1.30;;
57309;SDS011;43153;50.984;18.204;2023-02-04T10:20:55;6.00;;;1.60;;
57309;SDS011;43153;50.984;18.204;2023-02-04T10:23:25;6.60;;;2.40;;
57309;SDS011;43153;50.984;18.204;2023-02-04T10:25:52;8.10;;;1.90;;
57309;SDS011;43153;50.984;18.204;2023-02-04T10:28:21;7.60;;;2.10;;
57309;SDS011;43153;50.984;18.204;2023-02-04T10:30:58;9.60;;;2.40;;
57309;SDS011;43153;50.984;18.204;2023-02-04T10:33:24;6.30;;;1.60;;
57309;SDS011;43153;50.984;18.204;2023-02-04T10:35:52;4.50;;;1.40;;
57309;SDS011;43153;50.984;18.204;2023-02-04T10:38:20;5.30;;;1.40;;
57309;SDS011;43153;50.984;18.204;2023-02-04T10:41:02;6.40;;;2.20;;
57309;SDS011;43153;50.984;18.204;2023-02-04T10:43:30;7.10;;;1.50;;
57309;SDS011;43153;50.984;18.204;2023-02-04T10:45:57;6.10;;;1.70;;
57309;SDS011;43153;50.984;18.204;2023-02-04T10:48:25;7.70;;;2.30;;
57309;SDS011;43153;50.984;18.204;2023-02-04T10:50:57;6.30;;;1.40;;
57309;SDS011;43153;50.984;18.204;2023-02-04T10:53:24;14.10;;;1.70;;
57309;SDS011;43153;50.984;18.204;2023-02-04T10:56:14;7.90;;;2.00;;
57309;SDS011;43153;50.984;18.204;2023-02-04T10:58:46;6.30;;;1.50;;
57309;SDS011;43153;50.984;18.204;2023-02-04T11:01:13;9.20;;;2.00;;
57309;SDS011;43153;50.984;18.204;2023-02-04T11:03:42;7.00;;;1.90;;
57309;SDS011;43153;50.984;18.204;2023-02-04T11:06:16;9.20;;;2.50;;
57309;SDS011;43153;50.984;18.204;2023-02-04T11:08:46;7.50;;;2.30;;
57309;SDS011;43153;50.984;18.204;2023-02-04T11:11:18;6.30;;;1.80;;
57309;SDS011;43153;50.984;18.204;2023-02-04T11:16:23;9.40;;;3.40;;
57309;SDS011;43153;50.984;18.204;2023-02-04T11:19:03;9.30;;;2.40;;
57309;SDS011;43153;50.984;18.204;2023-02-04T11:26:36;7.00;;;2.30;;
57309;SDS011;43153;50.984;18.204;2023-02-04T11:29:08;10.70;;;3.50;;
57309;SDS011;43153;50.984;18.204;2023-02-04T11:42:17;8.10;;;2.60;;
57309;SDS011;43153;50.984;18.204;2023-02-04T11:44:53;9.60;;;3.00;;
57309;SDS011;43153;50.984;18.204;2023-02-04T11:47:23;8.60;;;2.80;;
57309;SDS011;43153;50.984;18.204;2023-02-04T11:49:57;8.90;;;2.20;;
57309;SDS011;43153;50.984;18.204;2023-02-04T11:52:27;10.60;;;2.40;;
57309;SDS011;43153;50.984;18.204;2023-02-04T11:55:02;7.60;;;2.60;;
57309;SDS011;43153;50.984;18.204;2023-02-04T11:57:28;8.50;;;2.40;;
57309;SDS011;43153;50.984;18.204;2023-02-04T12:00:04;6.70;;;2.30;;
57309;SDS011;43153;50.984;18.204;2023-02-04T12:02:40;8.70;;;2.50;;
57309;SDS011;43153;50.984;18.204;2023-02-04T12:05:11;13.70;;;3.10;;
57309;SDS011;43153;50.984;18.204;2023-02-04T12:07:44;7.10;;;2.30;;
57309;SDS011;43153;50.984;18.204;2023-02-04T12:12:53;6.30;;;1.80;;
57309;SDS011;43153;50.984;18.204;2023-02-04T12:15:30;9.50;;;2.00;;
57309;SDS011;43153;50.984;18.204;2023-02-04T12:18:05;6.90;;;1.30;;
57309;SDS011;43153;50.984;18.204;2023-02-04T12:20:34;5.70;;;1.20;;
57309;SDS011;43153;50.984;18.204;2023-02-04T12:23:06;9.70;;;1.80;;
57309;SDS011;43153;50.984;18.204;2023-02-04T12:25:33;7.80;;;1.90;;
57309;SDS011;43153;50.984;18.204;2023-02-04T12:28:01;6.40;;;1.80;;
57309;SDS011;43153;50.984;18.204;2023-02-04T12:30:31;5.20;;;1.30;;
57309;SDS011;43153;50.984;18.204;2023-02-04T12:32:58;7.50;;;1.20;;
57309;SDS011;43153;50.984;18.204;2023-02-04T12:35:25;7.30;;;1.50;;
57309;SDS011;43153;50.984;18.204;2023-02-04T12:37:51;3.90;;;1.40;;
57309;SDS011;43153;50.984;18.204;2023-02-04T12:40:18;7.30;;;1.80;;
57309;SDS011;43153;50.984;18.204;2023-02-04T12:42:45;7.20;;;1.50;;
57309;SDS011;43153;50.984;18.204;2023-02-04T12:45:12;5.30;;;1.60;;
57309;SDS011;43153;50.984;18.204;2023-02-04T12:47:39;5.80;;;1.50;;
57309;SDS011;43153;50.984;18.204;2023-02-04T12:50:13;5.30;;;1.50;;
57309;SDS011;43153;50.984;18.204;2023-02-04T12:52:48;5.10;;;1.40;;
57309;SDS011;43153;50.984;18.204;2023-02-04T12:55:15;3.10;;;0.90;;
57309;SDS011;43153;50.984;18.204;2023-02-04T12:57:42;6.70;;;1.20;;
57309;SDS011;43153;50.984;18.204;2023-02-04T13:00:08;7.70;;;1.60;;
57309;SDS011;43153;50.984;18.204;2023-02-04T13:02:38;4.30;;;1.40;;
57309;SDS011;43153;50.984;18.204;2023-02-04T13:05:04;6.60;;;1.50;;
57309;SDS011;43153;50.984;18.204;2023-02-04T13:07:31;6.30;;;1.60;;
57309;SDS011;43153;50.984;18.204;2023-02-04T13:09:58;5.20;;;1.40;;
57309;SDS011;43153;50.984;18.204;2023-02-04T13:12:24;8.20;;;1.70;;
57309;SDS011;43153;50.984;18.204;2023-02-04T13:14:51;5.60;;;1.50;;
57309;SDS011;43153;50.984;18.204;2023-02-04T13:17:18;6.20;;;1.80;;
57309;SDS011;43153;50.984;18.204;2023-02-04T13:19:44;6.90;;;1.70;;
57309;SDS011;43153;50.984;18.204;2023-02-04T13:22:10;7.60;;;1.70;;
57309;SDS011;43153;50.984;18.204;2023-02-04T13:24:38;4.50;;;1.50;;
57309;SDS011;43153;50.984;18.204;2023-02-04T13:27:05;8.60;;;1.80;;
57309;SDS011;43153;50.984;18.204;2023-02-04T13:29:38;6.50;;;1.60;;
57309;SDS011;43153;50.984;18.204;2023-02-04T13:32:04;6.60;;;1.60;;
57309;SDS011;43153;50.984;18.204;2023-02-04T13:34:31;4.90;;;1.20;;
57309;SDS011;43153;50.984;18.204;2023-02-04T13:37:01;7.10;;;1.90;;
57309;SDS011;43153;50.984;18.204;2023-02-04T13:39:28;8.10;;;1.90;;
57309;SDS011;43153;50.984;18.204;2023-02-04T13:41:55;7.40;;;1.80;;
57309;SDS011;43153;50.984;18.204;2023-02-04T13:44:21;6.00;;;1.70;;
57309;SDS011;43153;50.984;18.204;2023-02-04T13:46:48;6.80;;;1.50;;
57309;SDS011;43153;50.984;18.204;2023-02-04T13:49:14;3.90;;;1.00;;
57309;SDS011;43153;50.984;18.204;2023-02-04T13:51:41;6.90;;;1.50;;
57309;SDS011;43153;50.984;18.204;2023-02-04T13:54:07;5.70;;;2.10;;
57309;SDS011;43153;50.984;18.204;2023-02-04T13:56:36;7.60;;;2.00;;
57309;SDS011;43153;50.984;18.204;2023-02-04T13:59:04;13.80;;;2.10;;
57309;SDS011;43153;50.984;18.204;2023-02-04T14:01:34;5.70;;;1.80;;
57309;SDS011;43153;50.984;18.204;2023-02-04T14:04:00;7.90;;;1.90;;
57309;SDS011;43153;50.984;18.204;2023-02-04T14:06:29;6.60;;;1.60;;
57309;SDS011;43153;50.984;18.204;2023-02-04T14:09:03;6.00;;;1.90;;
57309;SDS011;43153;50.984;18.204;2023-02-04T14:11:30;3.80;;;1.10;;
57309;SDS011;43153;50.984;18.204;2023-02-04T14:13:56;5.30;;;1.60;;
57309;SDS011;43153;50.984;18.204;2023-02-04T14:16:22;6.50;;;1.80;;
57309;SDS011;43153;50.984;18.204;2023-02-04T14:18:49;5.20;;;1.40;;
57309;SDS011;43153;50.984;18.204;2023-02-04T14:21:15;7.20;;;1.50;;
57309;SDS011;43153;50.984;18.204;2023-02-04T14:26:12;5.20;;;1.10;;
57309;SDS011;43153;50.984;18.204;2023-02-04T14:28:38;9.60;;;2.00;;
57309;SDS011;43153;50.984;18.204;2023-02-04T14:31:05;4.70;;;1.10;;
57309;SDS011;43153;50.984;18.204;2023-02-04T14:33:33;8.50;;;1.90;;
57309;SDS011;43153;50.984;18.204;2023-02-04T14:35:58;6.80;;;1.50;;
57309;SDS011;43153;50.984;18.204;2023-02-04T14:38:25;5.00;;;1.60;;
57309;SDS011;43153;50.984;18.204;2023-02-04T14:40:56;6.30;;;1.40;;
57309;SDS011;43153;50.984;18.204;2023-02-04T14:43:23;7.90;;;1.80;;
57309;SDS011;43153;50.984;18.204;2023-02-04T14:45:51;8.20;;;1.80;;
57309;SDS011;43153;50.984;18.204;2023-02-04T14:48:18;7.90;;;1.60;;
57309;SDS011;43153;50.984;18.204;2023-02-04T14:50:44;8.10;;;1.70;;
57309;SDS011;43153;50.984;18.204;2023-02-04T14:53:11;6.80;;;1.80;;
57309;SDS011;43153;50.984;18.204;2023-02-04T14:55:38;8.70;;;1.70;;
57309;SDS011;43153;50.984;18.204;2023-02-04T14:58:04;7.70;;;1.70;;